Time;durP1;ratioP1;P1;durP2;ratioP2;P2;SDS_P1;SDS_P2;PMS_P1;PMS_P2;Temp;Humidity;BMP_temperature;BMP_pressure;BME280_temperature;BME280_humidity;BME280_pressure;Samples;Min_cycle;Max_cycle;Signal;HPM_P1;HPM_P2
2022/12/14 13:09:40;;;;;;;16.45;6.68;;;;;;;4.25;100.00;96990.13;3420293;28;22121;-73
2022/12/14 13:12:22;;;;;;;14.55;7.10;;;;;;;4.48;100.00;97012.03;5046968;28;20068;-73
2022/12/14 13:14:48;;;;;;;25.40;10.93;;;;;;;4.60;100.00;97012.31;5048103;28;20032;-72
2022/12/14 13:17:26;;;;;;;17.67;8.80;;;;;;;4.63;100.00;96996.28;5047752;28;20063;-73
2022/12/14 13:19:53;;;;;;;14.02;6.07;;;;;;;4.73;100.00;96999.38;5047895;28;20028;-72
2022/12/14 13:22:27;;;;;;;17.02;8.02;;;;;;;4.76;100.00;96997.44;5048814;28;20028;-71
2022/12/14 13:24:53;;;;;;;18.58;7.50;;;;;;;4.61;100.00;96986.69;5047705;28;20025;-71
2022/12/14 13:27:25;;;;;;;24.98;11.38;;;;;;;4.56;100.00;96984.25;5047233;28;20044;-71
2022/12/14 13:29:59;;;;;;;17.85;8.07;;;;;;;4.63;100.00;96993.63;5063844;28;20121;-71
2022/12/14 13:32:28;;;;;;;14.85;7.20;;;;;;;4.63;100.00;96975.09;5067176;28;20333;-71
2022/12/14 13:35:21;;;;;;;22.58;9.13;;;;;;;4.71;100.00;96964.97;5067535;28;20404;-72
2022/12/14 13:37:50;;;;;;;;;;;;;;;4.45;100.00;96970.69;5063601;28;20574;-72
2022/12/14 13:40:21;;;;;;;12.95;6.57;;;;;;;4.54;100.00;96959.66;5048522;28;19938;-71
2022/12/14 13:42:58;;;;;;;21.33;7.97;;;;;;;4.63;100.00;96953.91;5048582;28;20091;-72
2022/12/14 13:45:29;;;;;;;12.32;5.97;;;;;;;4.58;100.00;96929.44;5050506;28;20127;-73
2022/12/14 13:47:56;;;;;;;21.00;9.27;;;;;;;4.64;100.00;96942.41;5067108;28;20639;-72
2022/12/14 13:50:31;;;;;;;25.08;9.77;;;;;;;4.48;100.00;96952.00;5067191;28;20419;-72
2022/12/14 13:53:17;;;;;;;17.35;7.53;;;;;;;4.43;100.00;96955.81;5050529;28;20107;-71
2022/12/14 13:55:55;;;;;;;19.88;8.57;;;;;;;4.44;100.00;96936.31;5066780;28;20107;-72
2022/12/14 13:58:33;;;;;;;8.18;4.82;;;;;;;4.45;100.00;96941.56;5050246;28;20039;-71
2022/12/14 14:01:06;;;;;;;16.38;7.88;;;;;;;4.57;100.00;96921.56;5068326;28;20481;-72
2022/12/14 14:03:38;;;;;;;23.95;9.85;;;;;;;4.48;100.00;96929.94;5050302;28;20032;-73
2022/12/14 14:06:11;;;;;;;20.42;9.32;;;;;;;4.42;100.00;96932.91;5068218;28;20411;-73
2022/12/14 14:08:39;;;;;;;27.70;9.77;;;;;;;4.33;100.00;96947.44;5055900;28;20450;-70
2022/12/14 14:11:17;;;;;;;23.17;11.35;;;;;;;4.33;100.00;96960.66;5061663;28;20428;-73
2022/12/14 14:13:47;;;;;;;15.73;6.90;;;;;;;4.33;100.00;96929.75;5067820;28;20073;-73
2022/12/14 14:16:34;;;;;;;16.73;7.90;;;;;;;4.31;100.00;96925.44;5054747;28;20032;-73
2022/12/14 14:19:01;;;;;;;16.15;8.13;;;;;;;4.27;100.00;96929.19;5047704;28;20078;-73
2022/12/14 14:21:31;;;;;;;17.60;8.60;;;;;;;4.14;100.00;96944.78;5046726;28;20061;-74
2022/12/14 14:23:59;;;;;;;27.17;14.20;;;;;;;4.18;100.00;96950.78;5029967;28;20036;-74
2022/12/14 14:26:57;;;;;;;29.58;12.88;;;;;;;4.14;100.00;96950.06;5049110;28;20404;-75
2022/12/14 14:29:28;;;;;;;23.20;9.13;;;;;;;4.19;100.00;96953.34;5053017;28;20036;-76
2022/12/14 14:31:58;;;;;;;15.95;6.97;;;;;;;4.16;100.00;96932.31;5058405;28;20028;-76
2022/12/14 14:34:29;;;;;;;16.50;7.82;;;;;;;4.13;100.00;96928.97;5050473;28;20033;-76
2022/12/14 14:36:54;;;;;;;16.52;8.25;;;;;;;4.05;100.00;96902.88;5058652;28;20124;-77
2022/12/14 14:39:38;;;;;;;13.77;6.30;;;;;;;4.03;100.00;96878.25;5056174;28;20028;-76
2022/12/14 14:42:07;;;;;;;17.60;9.30;;;;;;;4.10;100.00;96890.28;5054900;28;20562;-78
2022/12/14 14:44:38;;;;;;;18.70;10.57;;;;;;;4.02;100.00;96887.16;5033124;28;20032;-76
2022/12/14 14:47:13;;;;;;;18.03;9.27;;;;;;;3.93;100.00;96892.88;5050578;28;20070;-78
2022/12/14 14:49:40;;;;;;;8.98;5.15;;;;;;;3.90;100.00;96897.44;5044957;28;20157;-77
2022/12/14 14:52:43;;;;;;;12.50;6.00;;;;;;;3.88;100.00;96878.97;5058945;28;20067;-76
2022/12/14 14:55:33;;;;;;;12.65;5.55;;;;;;;3.78;100.00;96888.28;5051614;28;20029;-77
2022/12/14 14:58:08;;;;;;;11.65;6.35;;;;;;;3.82;100.00;96900.41;5052222;28;20028;-77
2022/12/14 15:00:55;;;;;;;12.35;7.03;;;;;;;3.88;100.00;96891.38;5053100;28;20116;-77
2022/12/14 15:03:26;;;;;;;19.00;9.18;;;;;;;3.83;100.00;96863.34;5045563;28;20463;-69
2022/12/14 15:05:51;;;;;;;11.45;5.75;;;;;;;3.84;100.00;96822.72;5065384;28;20403;-69
2022/12/14 15:49:02;;;;;;;21.67;11.13;;;;;;;3.61;100.00;96910.19;3131521;28;22304;-74
2022/12/14 15:51:31;;;;;;;23.15;11.30;;;;;;;3.51;100.00;96914.16;5047017;28;20081;-73
2022/12/14 15:53:58;;;;;;;19.65;8.45;;;;;;;3.53;100.00;96936.13;5032334;28;20467;-73
2022/12/14 15:56:47;;;;;;;19.55;9.88;;;;;;;3.51;100.00;96937.94;5054431;28;20039;-73
2022/12/14 15:59:30;;;;;;;15.07;6.80;;;;;;;3.56;100.00;96887.53;5048055;28;20127;-73
2022/12/14 16:02:23;;;;;;;21.38;9.98;;;;;;;3.68;100.00;96871.97;5049063;28;20035;-73
2022/12/14 16:04:50;;;;;;;14.88;7.63;;;;;;;3.69;100.00;96883.41;5041616;28;20041;-73
2022/12/14 16:07:20;;;;;;;8.60;4.38;;;;;;;3.52;100.00;96868.31;5042629;28;20036;-73
2022/12/14 16:09:49;;;;;;;7.20;4.25;;;;;;;3.60;100.00;96858.22;5069078;28;20044;-73
2022/12/14 16:12:20;;;;;;;21.77;7.20;;;;;;;3.67;100.00;96853.53;5057219;28;20029;-72
2022/12/14 16:14:56;;;;;;;47.03;17.60;;;;;;;3.61;100.00;96869.66;5050058;28;20111;-72
2022/12/14 16:17:32;;;;;;;35.13;13.07;;;;;;;3.66;100.00;96887.03;5049064;28;20504;-72
2022/12/14 16:20:24;;;;;;;28.10;10.68;;;;;;;3.70;100.00;96899.19;5039554;28;20036;-72
2022/12/14 16:23:06;;;;;;;21.63;8.73;;;;;;;3.60;100.00;96900.53;5061868;28;20128;-72
2022/12/14 16:25:47;;;;;;;41.40;16.25;;;;;;;3.58;100.00;96917.38;5064562;28;20049;-73
2022/12/14 16:28:20;;;;;;;20.95;8.70;;;;;;;3.45;100.00;96911.78;5032929;28;20526;-73
2022/12/14 16:30:59;;;;;;;23.08;9.95;;;;;;;3.56;100.00;96895.47;5048581;28;20120;-72
2022/12/14 16:33:25;;;;;;;36.75;12.50;;;;;;;3.72;100.00;96883.28;5043311;28;20032;-72
2022/12/14 16:36:07;;;;;;;11.48;6.20;;;;;;;3.84;100.00;96854.44;5068305;28;20146;-72
2022/12/14 16:39:18;;;;;;;21.48;9.63;;;;;;;3.87;100.00;96857.91;5062403;28;20017;-73
2022/12/14 16:41:50;;;;;;;14.20;7.97;;;;;;;3.72;100.00;96852.38;5010573;28;20041;-72
2022/12/14 16:44:28;;;;;;;21.08;9.13;;;;;;;3.63;100.00;96866.03;4993643;28;20030;-71
2022/12/14 16:47:02;;;;;;;23.17;10.18;;;;;;;3.62;100.00;96882.81;5035481;28;20093;-72
2022/12/14 16:49:34;;;;;;;29.20;13.55;;;;;;;3.53;100.00;96898.25;5068609;28;20064;-73
2022/12/14 16:52:25;;;;;;;31.30;15.50;;;;;;;3.52;100.00;96923.81;5051987;28;20037;-71
2022/12/14 16:55:07;;;;;;;24.77;10.80;;;;;;;3.56;100.00;96914.84;5048224;28;20035;-75
2022/12/14 16:57:38;;;;;;;22.42;11.20;;;;;;;3.53;100.00;96899.09;5048738;28;20488;-76
2022/12/14 17:00:07;;;;;;;32.55;14.98;;;;;;;3.59;100.00;96914.69;5031834;28;20040;-77
2022/12/14 17:02:55;;;;;;;21.33;7.05;;;;;;;3.57;100.00;96883.97;5032374;28;20119;-78
2022/12/14 17:05:47;;;;;;;17.27;8.18;;;;;;;3.63;100.00;96886.34;5061838;28;20075;-78
2022/12/14 17:08:12;;;;;;;8.65;4.03;;;;;;;3.35;100.00;96860.28;5038699;28;20116;-76
2022/12/14 17:10:45;;;;;;;10.98;4.55;;;;;;;3.32;100.00;96878.91;5055399;28;20193;-76
2022/12/14 17:13:27;;;;;;;8.15;4.05;;;;;;;3.41;100.00;96894.38;5058261;28;20051;-77
2022/12/14 17:16:02;;;;;;;15.38;7.45;;;;;;;3.41;100.00;96910.22;5059607;28;20024;-77
2022/12/14 17:18:39;;;;;;;15.57;7.22;;;;;;;3.40;100.00;96927.00;5058077;28;20028;-77
2022/12/14 17:21:11;;;;;;;37.42;17.08;;;;;;;3.39;100.00;96934.97;5060743;28;20045;-77
2022/12/14 17:24:19;;;;;;;11.68;6.53;;;;;;;3.39;100.00;96953.47;5038694;28;20033;-76
2022/12/14 17:26:46;;;;;;;24.20;11.67;;;;;;;3.37;100.00;96958.84;5059462;28;20072;-77
2022/12/14 17:29:43;;;;;;;41.22;16.95;;;;;;;3.45;100.00;96977.00;5058131;28;20550;-78
2022/12/14 17:32:30;;;;;;;46.53;16.77;;;;;;;3.48;100.00;96976.88;5058862;28;20060;-77
2022/12/14 17:35:45;;;;;;;125.00;32.97;;;;;;;3.40;100.00;96955.22;5063008;28;20059;-76
2022/12/14 17:38:23;;;;;;;121.25;34.45;;;;;;;3.47;100.00;96915.25;5054743;28;20463;-77
2022/12/14 17:45:35;;;;;;;70.75;28.30;;;;;;;3.54;100.00;96916.66;5068829;28;20051;-76
2022/12/14 17:48:20;;;;;;;34.45;15.07;;;;;;;3.59;100.00;96925.28;5068721;28;20044;-75
2022/12/14 17:50:52;;;;;;;80.32;33.35;;;;;;;3.54;100.00;96931.66;5069376;28;20055;-78
2022/12/14 17:53:28;;;;;;;36.45;15.20;;;;;;;3.45;100.00;96925.00;5072226;28;20113;-76
2022/12/14 17:56:17;;;;;;;20.08;8.57;;;;;;;3.41;100.00;96889.09;5071565;28;20165;-77
2022/12/14 17:58:55;;;;;;;10.43;5.97;;;;;;;3.40;100.00;96863.56;5066336;28;20043;-77
2022/12/14 18:01:31;;;;;;;10.23;5.05;;;;;;;3.49;100.00;96876.38;5072639;28;20123;-76
2022/12/14 18:04:20;;;;;;;8.52;4.57;;;;;;;3.45;100.00;96853.63;5088016;28;20044;-77
2022/12/14 18:07:16;;;;;;;18.33;9.52;;;;;;;3.59;100.00;96823.94;5065819;28;20138;-76
2022/12/14 18:09:43;;;;;;;14.23;7.05;;;;;;;3.60;100.00;96801.88;5088492;28;20423;-76
2022/12/14 18:15:05;;;;;;;21.63;11.95;;;;;;;3.48;100.00;96845.56;5050421;28;20109;-77
2022/12/14 18:17:33;;;;;;;21.88;9.73;;;;;;;3.46;100.00;96863.28;5054989;28;20495;-76
2022/12/14 18:20:53;;;;;;;16.27;7.57;;;;;;;3.44;100.00;96862.50;5052838;28;20055;-81
2022/12/14 18:24:10;;;;;;;9.15;4.90;;;;;;;3.29;100.00;96873.78;5055568;28;20049;-77
2022/12/14 18:27:16;;;;;;;6.75;4.22;;;;;;;3.32;100.00;96880.69;5044458;28;20397;-75
2022/12/14 18:30:40;;;;;;;9.25;5.10;;;;;;;3.26;100.00;96884.47;5060489;28;20707;-76
2022/12/14 18:33:50;;;;;;;26.05;10.00;;;;;;;3.34;100.00;96884.97;5061546;28;20102;-77
2022/12/14 18:37:19;;;;;;;23.63;9.82;;;;;;;3.25;100.00;96880.09;5045077;28;20041;-75
2022/12/14 18:40:09;;;;;;;21.83;11.07;;;;;;;3.24;100.00;96881.03;5062310;28;20091;-77
2022/12/14 18:43:22;;;;;;;41.45;14.93;;;;;;;3.17;100.00;96869.84;5042361;28;20053;-75
2022/12/14 18:46:28;;;;;;;17.02;8.57;;;;;;;3.31;100.00;96866.63;5013521;28;20468;-76
2022/12/14 18:56:35;;;;;;;12.27;6.70;;;;;;;3.44;100.00;96841.38;5014730;28;20413;-78
2022/12/14 19:00:19;;;;;;;20.63;10.55;;;;;;;3.37;100.00;96850.50;5008687;28;20041;-76
2022/12/14 19:04:02;;;;;;;19.67;9.77;;;;;;;3.34;100.00;96855.91;4942486;28;20046;-71
2022/12/14 19:07:14;;;;;;;19.55;9.38;;;;;;;3.18;100.00;96870.72;4976708;28;20092;-77
2022/12/14 19:13:33;;;;;;;27.17;12.73;;;;;;;3.24;100.00;96870.44;5015513;28;20084;-76
2022/12/14 19:17:08;;;;;;;21.80;10.07;;;;;;;3.37;100.00;96825.84;5014336;28;20090;-83
2022/12/14 19:19:57;;;;;;;14.60;8.38;;;;;;;3.54;100.00;96791.56;5006925;28;20476;-77
2022/12/14 19:22:54;;;;;;;19.65;9.02;;;;;;;3.53;100.00;96766.94;5003938;28;20134;-76
2022/12/14 19:31:54;;;;;;;25.52;10.18;;;;;;;3.38;100.00;96804.66;5021172;28;20095;-82
2022/12/14 19:35:34;;;;;;;24.30;12.00;;;;;;;3.43;100.00;96823.78;5056594;28;20051;-80
2022/12/14 19:38:41;;;;;;;25.08;11.40;;;;;;;3.23;100.00;96792.13;5034255;28;20029;-79
2022/12/14 19:41:26;;;;;;;21.25;10.43;;;;;;;3.10;100.00;96798.88;5031242;28;20034;-76
2022/12/14 19:44:48;;;;;;;23.88;10.88;;;;;;;3.28;100.00;96835.03;5027697;28;20037;-76
2022/12/14 19:47:29;;;;;;;22.42;9.98;;;;;;;3.28;100.00;96820.06;5032550;28;20046;-76
2022/12/14 19:50:18;;;;;;;20.83;8.95;;;;;;;3.29;100.00;96820.91;5028071;28;20120;-78
2022/12/14 19:53:12;;;;;;;26.60;10.55;;;;;;;3.19;100.00;96822.25;5009573;28;20049;-78
2022/12/14 19:59:02;;;;;;;29.23;12.65;;;;;;;3.14;100.00;96798.66;5008305;28;20495;-78
2022/12/14 20:02:09;;;;;;;34.20;15.35;;;;;;;3.22;100.00;96806.25;5005463;28;20094;-76
2022/12/14 20:04:59;;;;;;;18.02;7.88;;;;;;;3.10;100.00;96759.25;4998070;28;20637;-77
2022/12/14 20:10:37;;;;;;;12.95;5.93;;;;;;;3.25;100.00;96784.97;5017248;28;20102;-78
2022/12/14 20:13:25;;;;;;;12.80;6.78;;;;;;;3.13;100.00;96789.03;5003134;28;20144;-79
2022/12/14 20:16:43;;;;;;;11.98;6.20;;;;;;;3.19;100.00;96787.91;5056230;28;20059;-78
2022/12/14 20:20:15;;;;;;;17.17;7.85;;;;;;;3.20;100.00;96801.03;5071326;28;20127;-77
2022/12/14 20:24:05;;;;;;;17.38;6.47;;;;;;;3.13;100.00;96801.38;5046358;28;20025;-78
2022/12/14 20:26:31;;;;;;;10.48;5.07;;;;;;;3.09;100.00;96810.38;5033637;28;20484;-78
2022/12/14 20:29:37;;;;;;;9.35;5.10;;;;;;;3.07;100.00;96812.22;5027968;28;20052;-76
2022/12/14 20:32:59;;;;;;;10.98;5.80;;;;;;;3.10;100.00;96809.44;5028257;28;20040;-77
2022/12/14 20:36:17;;;;;;;12.50;5.90;;;;;;;2.96;100.00;96781.00;5048499;28;20520;-76
2022/12/14 20:39:29;;;;;;;12.18;5.13;;;;;;;3.01;100.00;96805.44;5048592;28;20064;-78
2022/12/14 20:42:16;;;;;;;12.88;5.75;;;;;;;2.70;100.00;96768.09;5046096;28;20491;-77
2022/12/14 20:45:10;;;;;;;24.42;10.13;;;;;;;2.83;100.00;96773.69;5023664;28;20123;-77
2022/12/14 20:47:57;;;;;;;20.15;8.27;;;;;;;2.93;100.00;96793.47;5049644;28;20029;-76
2022/12/14 20:50:28;;;;;;;25.25;12.43;;;;;;;2.91;100.00;96779.50;5047158;28;20110;-77
2022/12/14 20:53:30;;;;;;;27.02;11.98;;;;;;;2.96;100.00;96780.13;5015332;28;20061;-78
2022/12/14 20:56:16;;;;;;;34.60;14.73;;;;;;;3.01;100.00;96796.66;5070037;28;20028;-78
2022/12/14 20:58:49;;;;;;;51.78;21.83;;;;;;;3.02;100.00;96796.56;4997981;28;20722;-76
2022/12/14 21:01:38;;;;;;;36.20;16.98;;;;;;;2.91;100.00;96782.13;5051114;28;20109;-77
2022/12/14 21:05:00;;;;;;;34.00;15.77;;;;;;;2.84;100.00;96765.69;5045688;28;20111;-77
2022/12/14 21:08:29;;;;;;;51.15;24.73;;;;;;;2.97;100.00;96781.84;4946061;29;20116;-77
2022/12/14 21:15:38;;;;;;;83.60;37.95;;;;;;;2.76;100.00;96759.03;4912361;29;20181;-77
2022/12/14 21:22:03;;;;;;;94.85;42.17;;;;;;;2.86;100.00;96789.41;4902580;29;20047;-77
2022/12/14 21:25:06;;;;;;;105.13;46.30;;;;;;;2.71;100.00;96768.00;4862933;29;20135;-78
2022/12/14 21:28:44;;;;;;;103.43;46.47;;;;;;;2.96;100.00;96801.25;4873858;29;20045;-78
2022/12/14 21:35:20;;;;;;;63.42;28.83;;;;;;;2.82;100.00;96793.09;4876483;29;20089;-79
2022/12/14 21:39:10;;;;;;;51.03;22.23;;;;;;;2.64;100.00;96769.22;4881965;29;20071;-78
2022/12/14 21:45:56;;;;;;;68.88;30.73;;;;;;;2.79;100.00;96790.59;4894001;29;20523;-78
2022/12/14 21:49:31;;;;;;;61.03;28.27;;;;;;;2.72;100.00;96787.34;4818719;29;20117;-78
2022/12/14 22:00:05;;;;;;;53.42;25.20;;;;;;;2.80;100.00;96773.84;4765165;30;20097;-78
2022/12/14 22:06:33;;;;;;;45.78;21.83;;;;;;;2.69;100.00;96766.38;4781635;30;20058;-78
2022/12/14 22:10:13;;;;;;;52.88;24.95;;;;;;;2.59;100.00;96755.34;4746133;30;20451;-77
2022/12/14 22:13:43;;;;;;;55.80;24.23;;;;;;;2.68;100.00;96754.94;4743740;30;20040;-77
2022/12/14 22:17:33;;;;;;;58.55;28.25;;;;;;;2.84;100.00;96778.91;4708996;30;20120;-76
2022/12/14 22:21:10;;;;;;;49.90;24.88;;;;;;;3.03;100.00;96798.28;4747969;30;20509;-77
2022/12/14 22:24:40;;;;;;;58.20;24.63;;;;;;;2.77;100.00;96745.75;4773816;30;20381;-78
2022/12/14 22:28:19;;;;;;;46.88;22.67;;;;;;;2.90;100.00;96769.84;4766298;30;20441;-78
2022/12/14 22:31:51;;;;;;;66.55;28.25;;;;;;;2.85;100.00;96753.34;4737321;30;20040;-79
2022/12/14 22:35:33;;;;;;;69.90;29.65;;;;;;;2.83;100.00;96747.28;4718925;30;20059;-79
2022/12/14 22:41:59;;;;;;;45.45;21.48;;;;;;;2.74;100.00;96696.59;4739819;30;20125;-78
2022/12/14 22:51:38;;;;;;;47.67;21.52;;;;;;;2.78;100.00;96744.84;4724821;30;20131;-77
2022/12/14 22:55:23;;;;;;;59.35;25.42;;;;;;;2.78;100.00;96720.22;4739686;30;20071;-77
2022/12/14 22:58:34;;;;;;;41.03;20.65;;;;;;;2.48;100.00;96691.63;4714385;30;20481;-78
2022/12/14 23:02:14;;;;;;;42.38;19.85;;;;;;;2.69;100.00;96732.91;4725999;30;20040;-76
2022/12/14 23:05:36;;;;;;;42.58;19.55;;;;;;;2.77;100.00;96726.44;4769041;29;20078;-77
